Time;durP1;ratioP1;P1;durP2;ratioP2;P2;SDS_P1;SDS_P2;PMS_P1;PMS_P2;Temp;Humidity;BMP_temperature;BMP_pressure;BME280_temperature;BME280_humidity;BME280_pressure;Samples;Min_cycle;Max_cycle;Signal;HPM_P1;HPM_P2
2022/10/07 15:16:17;;;;;;;7.70;7.00;;;;;;;16.13;100.00;99549.27;2259868;79;22891;-85
2022/10/07 15:19:18;;;;;;;7.65;6.85;;;;;;;16.02;100.00;99555.61;2227144;80;21001;-81
2022/10/07 15:22:19;;;;;;;7.28;6.53;;;;;;;15.98;100.00;99556.48;2227225;80;21012;-82
2022/10/07 15:25:20;;;;;;;12.80;10.13;;;;;;;15.99;100.00;99550.70;2226927;80;21084;-81
2022/10/07 15:28:21;;;;;;;13.00;9.23;;;;;;;15.99;100.00;99541.45;2226873;80;20992;-82
2022/10/07 15:31:22;;;;;;;14.30;9.70;;;;;;;16.00;100.00;99539.97;2226869;80;21002;-82
2022/10/07 15:34:22;;;;;;;12.30;9.23;;;;;;;16.04;100.00;99538.55;2226892;80;21016;-82
2022/10/07 15:37:24;;;;;;;18.42;11.88;;;;;;;16.03;100.00;99528.19;2227047;80;21012;-83
2022/10/07 15:40:24;;;;;;;10.93;9.88;;;;;;;16.01;100.00;99531.53;2226985;80;21065;-83
2022/10/07 15:43:25;;;;;;;10.23;9.23;;;;;;;15.97;100.00;99536.87;2226993;80;21005;-83
2022/10/07 15:46:26;;;;;;;11.10;8.70;;;;;;;15.91;100.00;99531.89;2227052;80;20969;-83
2022/10/07 15:49:27;;;;;;;13.00;11.50;;;;;;;15.86;100.00;99525.03;2226964;80;21572;-82
2022/10/07 15:52:28;;;;;;;16.77;13.78;;;;;;;15.81;100.00;99522.96;2226990;80;21458;-83
2022/10/07 15:55:29;;;;;;;12.03;10.03;;;;;;;15.77;100.00;99522.23;2226862;80;21034;-82
2022/10/07 15:58:29;;;;;;;12.43;9.93;;;;;;;15.71;100.00;99519.03;2226738;80;20950;-83
2022/10/07 16:01:31;;;;;;;11.90;10.75;;;;;;;15.66;100.00;99517.49;2226895;80;20918;-83
2022/10/07 16:04:32;;;;;;;12.90;11.55;;;;;;;15.60;100.00;99514.60;2226917;80;21025;-83
2022/10/07 16:07:33;;;;;;;14.58;12.50;;;;;;;15.53;100.00;99515.53;2226671;80;21044;-83
2022/10/07 16:10:37;;;;;;;15.93;12.85;;;;;;;15.47;100.00;99512.36;2227010;80;21679;-84
2022/10/07 16:13:37;;;;;;;19.75;16.30;;;;;;;15.36;100.00;99508.39;2226679;80;21043;-82
2022/10/07 16:16:39;;;;;;;25.25;19.45;;;;;;;15.31;100.00;99515.57;2220677;80;20965;-83
2022/10/07 16:19:40;;;;;;;21.80;17.90;;;;;;;15.24;100.00;99513.37;2220739;80;21030;-84
2022/10/07 16:22:41;;;;;;;22.95;20.20;;;;;;;15.18;100.00;99509.35;2220795;80;21039;-83
2022/10/07 16:25:41;;;;;;;22.42;19.27;;;;;;;15.12;100.00;99505.67;2220407;80;20930;-83
2022/10/07 16:32:02;;;;;;;26.05;17.50;;;;;;;14.98;100.00;99498.63;2219967;80;21033;-83
2022/10/07 16:35:03;;;;;;;22.48;17.80;;;;;;;14.89;100.00;99499.76;2220138;80;21551;-82
2022/10/07 16:38:04;;;;;;;25.23;17.30;;;;;;;14.78;100.00;99492.66;2219945;80;20993;-83
2022/10/07 16:41:05;;;;;;;18.90;15.23;;;;;;;14.73;100.00;99494.25;2219999;80;21365;-83
2022/10/07 16:44:06;;;;;;;19.50;14.35;;;;;;;14.68;100.00;99500.06;2220015;80;21484;-84
2022/10/07 16:47:06;;;;;;;14.30;12.15;;;;;;;14.64;100.00;99491.42;2219904;80;20997;-83
2022/10/07 16:50:07;;;;;;;19.15;11.12;;;;;;;14.58;100.00;99489.02;2219891;80;20984;-83
2022/10/07 16:53:08;;;;;;;16.57;11.18;;;;;;;14.54;100.00;99485.13;2220075;80;21511;-83
2022/10/07 16:56:09;;;;;;;14.28;11.65;;;;;;;14.49;100.00;99486.99;2221245;80;20992;-84
2022/10/07 16:59:10;;;;;;;14.43;12.03;;;;;;;14.45;100.00;99484.92;2219908;80;20981;-83
2022/10/07 17:02:11;;;;;;;13.03;11.73;;;;;;;14.43;100.00;99482.42;2219813;80;21023;-83
2022/10/07 17:05:12;;;;;;;13.00;11.45;;;;;;;14.38;100.00;99480.05;2220032;80;21041;-83
2022/10/07 17:08:12;;;;;;;16.62;13.98;;;;;;;14.33;100.00;99475.31;2219842;80;20961;-84
2022/10/07 17:11:27;;;;;;;17.50;13.40;;;;;;;14.29;100.00;99476.70;2219994;80;21523;-83
2022/10/07 17:14:16;;;;;;;15.95;12.15;;;;;;;14.26;100.00;99473.09;2216859;80;21109;-84
2022/10/07 17:17:17;;;;;;;16.65;12.47;;;;;;;14.23;100.00;99471.66;2220061;80;21507;-82
2022/10/07 17:20:18;;;;;;;15.15;12.70;;;;;;;14.20;100.00;99472.54;2219992;80;21532;-82
2022/10/07 17:23:24;;;;;;;18.05;12.95;;;;;;;14.16;100.00;99469.44;2220521;80;21044;-84
2022/10/07 17:26:22;;;;;;;15.63;12.78;;;;;;;14.13;100.00;99471.14;2219368;80;21507;-82
2022/10/07 17:29:28;;;;;;;14.03;12.55;;;;;;;14.09;100.00;99473.02;2219968;80;21307;-82
2022/10/07 17:32:26;;;;;;;14.73;12.47;;;;;;;14.05;100.00;99468.59;2218848;80;21089;-82
2022/10/07 17:35:27;;;;;;;17.17;12.90;;;;;;;14.02;100.00;99464.21;2219943;80;21100;-83
2022/10/07 17:38:32;;;;;;;18.20;12.95;;;;;;;13.98;100.00;99462.92;2220123;80;21045;-83
2022/10/07 17:41:30;;;;;;;16.95;12.45;;;;;;;13.92;100.00;99454.78;2219607;80;21028;-82
2022/10/07 17:44:31;;;;;;;19.37;12.25;;;;;;;13.88;100.00;99454.81;2220533;80;21020;-82
2022/10/07 17:47:32;;;;;;;16.97;12.68;;;;;;;13.82;100.00;99452.11;2220129;80;21013;-83
2022/10/07 17:50:34;;;;;;;14.25;11.78;;;;;;;13.82;100.00;99458.19;2219716;80;21056;-82
2022/10/07 17:53:34;;;;;;;15.28;12.10;;;;;;;13.78;100.00;99456.91;2219517;80;21671;-83
2022/10/07 17:56:35;;;;;;;13.60;12.18;;;;;;;13.75;100.00;99459.91;2219614;80;21020;-82
2022/10/07 17:59:37;;;;;;;20.70;11.68;;;;;;;13.70;100.00;99453.55;2219824;80;20954;-83
2022/10/07 18:02:38;;;;;;;15.20;12.18;;;;;;;13.66;100.00;99450.47;2219914;80;21601;-82
2022/10/07 18:05:39;;;;;;;15.28;11.93;;;;;;;13.61;100.00;99449.69;2219838;80;21068;-83
2022/10/07 18:08:40;;;;;;;17.20;13.68;;;;;;;13.57;100.00;99447.11;2219962;80;21504;-83
2022/10/07 18:15:18;;;;;;;18.02;13.80;;;;;;;13.52;100.00;99436.80;2219645;80;21040;-83
2022/10/07 18:18:19;;;;;;;18.37;14.47;;;;;;;13.43;100.00;99432.12;2219609;80;21535;-83
2022/10/07 18:21:21;;;;;;;20.52;13.00;;;;;;;13.35;100.00;99425.66;2219470;80;20954;-83
2022/10/07 18:24:22;;;;;;;17.40;13.50;;;;;;;13.32;100.00;99428.13;2219664;80;20957;-83
2022/10/07 18:27:23;;;;;;;16.90;13.58;;;;;;;13.28;100.00;99424.23;2219468;80;21001;-82
2022/10/07 18:30:24;;;;;;;15.00;12.40;;;;;;;13.23;100.00;99425.25;2219638;80;20997;-82
2022/10/07 18:33:25;;;;;;;20.37;13.25;;;;;;;13.22;100.00;99423.63;2219537;80;21001;-82
2022/10/07 18:36:26;;;;;;;17.40;13.50;;;;;;;13.20;100.00;99419.05;2219644;80;20954;-82
2022/10/07 18:39:28;;;;;;;16.57;12.75;;;;;;;13.17;100.00;99418.56;2219466;80;21434;-83
2022/10/07 18:42:29;;;;;;;15.23;13.30;;;;;;;13.12;100.00;99412.52;2219548;80;21634;-83
2022/10/07 18:45:29;;;;;;;18.82;14.33;;;;;;;13.08;100.00;99413.88;2219594;80;21000;-82
2022/10/07 18:48:30;;;;;;;21.48;15.25;;;;;;;13.04;100.00;99414.72;2219474;80;20957;-83
2022/10/07 18:51:31;;;;;;;17.95;15.35;;;;;;;13.00;100.00;99418.71;2219512;80;21083;-83
2022/10/07 18:54:31;;;;;;;20.27;14.53;;;;;;;12.97;100.00;99415.10;2219418;80;20978;-84
2022/10/07 18:57:32;;;;;;;20.10;14.35;;;;;;;12.96;100.00;99407.40;2219484;80;20963;-84
2022/10/07 19:00:34;;;;;;;17.65;14.55;;;;;;;12.97;100.00;99407.72;2219440;80;21084;-84
2022/10/07 19:03:34;;;;;;;17.80;12.65;;;;;;;12.93;100.00;99399.87;2219699;80;21004;-84
2022/10/07 19:06:35;;;;;;;18.27;12.68;;;;;;;12.91;100.00;99409.27;2219459;80;21009;-83
2022/10/07 19:09:36;;;;;;;15.30;12.13;;;;;;;12.90;100.00;99411.58;2219504;80;21000;-84
2022/10/07 19:15:45;;;;;;;;;;;;;;;12.85;100.00;99409.14;2129180;83;21057;-82
2022/10/07 19:18:46;;;;;;;13.43;10.45;;;;;;;12.82;100.00;99402.44;2115710;84;20158;-84
2022/10/07 19:21:47;;;;;;;14.07;11.05;;;;;;;12.81;100.00;99404.75;2115841;84;21531;-82
2022/10/07 19:28:07;;;;;;;12.28;10.35;;;;;;;12.75;100.00;99396.25;2092512;85;21131;-82
2022/10/07 19:31:08;;;;;;;13.35;10.25;;;;;;;12.72;100.00;99385.61;2092493;85;20958;-82
2022/10/07 19:34:08;;;;;;;10.98;9.48;;;;;;;12.70;100.00;99393.32;2092572;85;21523;-83
2022/10/07 19:37:09;;;;;;;12.65;9.43;;;;;;;12.67;100.00;99385.30;2092547;85;21040;-82
2022/10/07 19:40:10;;;;;;;12.20;10.05;;;;;;;12.65;100.00;99383.86;2092662;85;20996;-84
2022/10/07 19:43:11;;;;;;;11.57;9.48;;;;;;;12.65;100.00;99391.73;2092402;85;21016;-83
2022/10/07 19:46:11;;;;;;;12.98;11.08;;;;;;;12.63;100.00;99391.11;2092388;85;21503;-82
2022/10/07 19:49:12;;;;;;;14.13;12.65;;;;;;;12.61;100.00;99387.81;2104690;84;20986;-84
2022/10/07 19:52:13;;;;;;;13.60;12.18;;;;;;;12.61;100.00;99388.63;2139023;82;21072;-82
2022/10/07 19:55:14;;;;;;;13.22;11.78;;;;;;;12.59;100.00;99385.86;2180426;82;21017;-83
2022/10/07 19:58:15;;;;;;;14.10;11.73;;;;;;;12.58;100.00;99383.73;2180814;82;21066;-82
2022/10/07 20:01:16;;;;;;;11.33;10.08;;;;;;;12.57;100.00;99376.03;2180973;82;20958;-84
2022/10/07 20:04:17;;;;;;;11.48;10.00;;;;;;;12.58;100.00;99385.55;2181166;82;21044;-84
2022/10/07 20:07:18;;;;;;;12.80;10.55;;;;;;;12.56;100.00;99377.03;2181243;82;21042;-83
2022/10/07 20:10:19;;;;;;;11.88;10.43;;;;;;;12.57;100.00;99376.03;2181228;82;21076;-83
2022/10/07 20:13:20;;;;;;;12.50;10.65;;;;;;;12.56;100.00;99380.97;2181072;82;20970;-82
2022/10/07 20:16:21;;;;;;;14.38;11.28;;;;;;;12.53;100.00;99379.02;2203239;80;21041;-83
2022/10/07 20:19:22;;;;;;;14.35;11.45;;;;;;;12.50;100.00;99375.91;2219764;80;21421;-83
2022/10/07 20:22:22;;;;;;;14.20;11.88;;;;;;;12.49;100.00;99371.16;2219631;80;21564;-84
2022/10/07 20:25:24;;;;;;;12.75;10.90;;;;;;;12.47;100.00;99365.27;2220089;80;21445;-83
2022/10/07 20:28:25;;;;;;;15.20;12.05;;;;;;;12.48;100.00;99366.90;2219727;80;21076;-83
2022/10/07 20:31:25;;;;;;;15.30;12.45;;;;;;;12.45;100.00;99358.56;2219618;80;21500;-84
2022/10/07 20:34:26;;;;;;;14.38;12.80;;;;;;;12.43;100.00;99352.65;2219813;80;22064;-82
2022/10/07 20:37:27;;;;;;;14.30;12.20;;;;;;;12.43;100.00;99349.52;2219576;80;21043;-82
2022/10/07 20:43:47;;;;;;;16.42;13.20;;;;;;;12.39;100.00;99348.75;2219667;80;21129;-83
2022/10/07 20:46:50;;;;;;;16.30;13.30;;;;;;;12.36;100.00;99343.36;2220271;80;21515;-82
2022/10/07 20:49:50;;;;;;;17.70;13.58;;;;;;;12.34;100.00;99340.08;2219902;80;21061;-82
2022/10/07 20:52:51;;;;;;;16.32;13.13;;;;;;;12.31;100.00;99333.05;2219618;80;20997;-81
2022/10/07 20:55:52;;;;;;;20.23;13.72;;;;;;;12.31;100.00;99331.24;2219607;80;21492;-82
2022/10/07 20:58:52;;;;;;;14.90;12.45;;;;;;;12.21;100.00;99326.23;2219666;80;21028;-82
2022/10/07 21:01:53;;;;;;;17.02;13.60;;;;;;;12.21;100.00;99326.23;2219709;80;21008;-82
2022/10/07 21:04:54;;;;;;;16.00;13.10;;;;;;;12.23;100.00;99329.98;2219597;80;21504;-82
2022/10/07 21:07:54;;;;;;;14.98;13.13;;;;;;;12.19;100.00;99321.66;2219697;80;21500;-82
2022/10/07 21:10:55;;;;;;;16.10;13.98;;;;;;;12.16;100.00;99327.27;2219701;80;21005;-82
2022/10/07 21:13:56;;;;;;;16.60;13.83;;;;;;;12.12;100.00;99320.71;2219695;80;21044;-82
2022/10/07 21:16:57;;;;;;;20.05;14.90;;;;;;;12.09;100.00;99315.83;2219478;80;21041;-82
2022/10/07 21:19:58;;;;;;;20.17;14.03;;;;;;;12.06;100.00;99314.02;2219686;80;20978;-83
2022/10/07 21:22:59;;;;;;;17.00;13.72;;;;;;;12.01;100.00;99314.56;2219924;80;21012;-82
2022/10/07 21:26:00;;;;;;;18.48;14.83;;;;;;;12.00;100.00;99311.62;2219410;80;21065;-82
2022/10/07 21:29:01;;;;;;;16.62;14.33;;;;;;;12.00;100.00;99305.55;2219837;80;21083;-83
2022/10/07 21:32:02;;;;;;;15.65;13.72;;;;;;;11.97;100.00;99301.45;2219695;80;20930;-83
2022/10/07 21:35:03;;;;;;;17.17;14.45;;;;;;;11.93;100.00;99304.11;2220126;80;21100;-83
2022/10/07 21:38:04;;;;;;;21.25;15.38;;;;;;;11.89;100.00;99308.90;2219566;80;20977;-83
2022/10/07 21:41:04;;;;;;;19.80;14.80;;;;;;;11.87;100.00;99303.48;2219582;80;21037;-83
2022/10/07 21:44:05;;;;;;;17.40;13.88;;;;;;;11.83;100.00;99306.95;2219802;80;21005;-82
2022/10/07 21:47:06;;;;;;;19.52;15.13;;;;;;;11.79;100.00;99303.00;2219769;80;20941;-83
2022/10/07 21:50:07;;;;;;;18.15;14.50;;;;;;;11.75;100.00;99305.66;2219683;80;20989;-82
2022/10/07 21:53:07;;;;;;;20.62;14.45;;;;;;;11.73;100.00;99295.02;2219651;80;20954;-83
2022/10/07 21:56:08;;;;;;;20.12;15.72;;;;;;;11.68;100.00;99285.84;2219622;80;20967;-83
2022/10/07 21:59:09;;;;;;;20.80;16.48;;;;;;;11.65;100.00;99290.63;2219860;80;21029;-82
2022/10/07 22:02:10;;;;;;;19.92;15.50;;;;;;;11.63;100.00;99292.62;2219649;80;20930;-82
2022/10/07 22:05:13;;;;;;;19.23;15.63;;;;;;;11.60;100.00;99283.77;2219760;80;20970;-83
2022/10/07 22:11:32;;;;;;;22.00;15.60;;;;;;;11.52;100.00;99278.55;2219612;80;21036;-82
2022/10/07 22:14:33;;;;;;;22.27;16.95;;;;;;;11.47;100.00;99271.22;2219253;80;21056;-82
2022/10/07 22:17:33;;;;;;;19.32;16.75;;;;;;;11.44;100.00;99268.95;2211392;80;20998;-83
2022/10/07 22:20:37;;;;;;;23.60;15.58;;;;;;;11.42;100.00;99264.34;2219539;80;21611;-83
2022/10/07 22:23:36;;;;;;;21.05;15.72;;;;;;;11.40;100.00;99257.97;2219434;80;20985;-83
2022/10/07 22:26:37;;;;;;;21.15;16.37;;;;;;;11.36;100.00;99256.69;2219621;80;21543;-82
2022/10/07 22:29:38;;;;;;;18.52;15.68;;;;;;;11.33;100.00;99257.02;2219647;80;20938;-83
2022/10/07 22:32:39;;;;;;;20.65;16.62;;;;;;;11.32;100.00;99254.07;2219717;80;21000;-83
2022/10/07 22:35:40;;;;;;;21.57;17.32;;;;;;;11.29;100.00;99254.42;2219297;80;20984;-83
2022/10/07 22:38:40;;;;;;;19.32;15.98;;;;;;;11.28;100.00;99259.84;2219101;80;21060;-82
2022/10/07 22:41:41;;;;;;;20.17;16.45;;;;;;;11.26;100.00;99260.02;2219561;80;21068;-82
2022/10/07 22:44:42;;;;;;;18.70;16.65;;;;;;;11.23;100.00;99251.16;2219500;80;20949;-83
2022/10/07 22:47:42;;;;;;;24.37;16.75;;;;;;;11.21;100.00;99255.77;2219596;80;21108;-83
2022/10/07 22:50:43;;;;;;;19.95;16.02;;;;;;;11.18;100.00;99248.25;2219608;80;21500;-83
2022/10/07 22:53:47;;;;;;;20.12;16.85;;;;;;;11.14;100.00;99245.63;2219598;80;21048;-83
2022/10/07 22:56:47;;;;;;;20.92;16.82;;;;;;;11.10;100.00;99242.55;2219602;80;21004;-83
2022/10/07 22:59:48;;;;;;;19.02;16.48;;;;;;;11.09;100.00;99240.09;2219505;80;21461;-83
2022/10/07 23:02:49;;;;;;;19.45;16.37;;;;;;;11.07;100.00;99242.08;2219608;80;21041;-82
2022/10/07 23:05:50;;;;;;;22.48;17.70;;;;;;;11.10;100.00;99245.66;2219500;80;21006;-83
2022/10/07 23:08:50;;;;;;;20.97;16.87;;;;;;;11.07;100.00;99241.58;2219484;80;22154;-83
2022/10/07 23:11:51;;;;;;;22.42;18.87;;;;;;;11.03;100.00;99238.96;2219588;80;21077;-83
2022/10/07 23:14:53;;;;;;;21.57;17.05;;;;;;;11.02;100.00;99236.02;2219561;80;21472;-83
2022/10/07 23:17:54;;;;;;;23.80;19.17;;;;;;;11.03;100.00;99241.58;2218942;80;21028;-83
2022/10/07 23:20:54;;;;;;;23.62;17.85;;;;;;;11.01;100.00;99237.50;2209329;81;21564;-83
2022/10/07 23:23:59;;;;;;;22.45;18.98;;;;;;;10.97;100.00;99240.97;2209309;81;21032;-82
2022/10/07 23:26:58;;;;;;;22.77;18.20;;;;;;;10.95;100.00;99233.74;2208408;80;21025;-82
2022/10/07 23:29:59;;;;;;;21.62;17.67;;;;;;;10.95;100.00;99234.23;2209362;81;22043;-83
2022/10/07 23:33:00;;;;;;;23.05;17.85;;;;;;;10.95;100.00;99223.76;2209169;81;21070;-82
2022/10/07 23:36:02;;;;;;;20.72;17.57;;;;;;;10.95;100.00;99223.76;2209274;81;21041;-83
2022/10/07 23:39:03;;;;;;;22.52;17.42;;;;;;;10.95;100.00;99226.38;2209624;81;21071;-83
2022/10/07 23:42:04;;;;;;;22.00;18.48;;;;;;;10.96;100.00;99223.59;2209566;81;20978;-83
2022/10/07 23:45:04;;;;;;;26.68;19.57;;;;;;;10.95;100.00;99225.89;2209453;81;20997;-83
2022/10/07 23:48:05;;;;;;;25.82;20.62;;;;;;;10.95;100.00;99227.69;2209611;81;21539;-82
2022/10/07 23:51:06;;;;;;;24.07;19.82;;;;;;;10.90;100.00;99224.28;2209624;81;21430;-84
2022/10/07 23:54:06;;;;;;;22.80;19.48;;;;;;;10.88;100.00;99220.17;2209697;81;21005;-83
2022/10/07 23:57:07;;;;;;;21.87;18.92;;;;;;;10.86;100.00;99216.42;2209595;81;20965;-83
